createdAt,value
2019-04-06T00:02:42.527Z,36.91
2019-04-06T00:07:51.598Z,35.99
2019-04-06T00:18:06.910Z,37.31
2019-04-06T00:23:22.280Z,35.40
2019-04-06T00:28:20.918Z,35.79
2019-04-06T00:33:29.642Z,35.27
2019-04-06T00:38:38.579Z,36.75
2019-04-06T00:43:47.061Z,35.28
2019-04-06T00:48:55.882Z,35.93
2019-04-06T00:54:04.285Z,37.86
2019-04-06T00:59:14.952Z,37.38
2019-04-06T01:04:13.468Z,37.34
2019-04-06T01:09:21.861Z,37.64
2019-04-06T01:14:31.166Z,37.80
2019-04-06T01:19:40.057Z,40.73
2019-04-06T01:24:47.454Z,38.46
2019-04-06T01:29:55.847Z,38.27
2019-04-06T01:35:04.907Z,41.43
2019-04-06T01:40:13.449Z,38.20
2019-04-06T01:45:22.117Z,38.12
2019-04-06T01:50:30.576Z,37.66
2019-04-06T01:55:39.743Z,38.35
2019-04-06T02:00:48.110Z,38.64
2019-04-06T02:05:56.929Z,37.02
2019-04-06T02:11:05.440Z,37.55
2019-04-06T02:16:14.516Z,39.40
2019-04-06T02:21:23.442Z,43.21
2019-04-06T02:26:32.367Z,38.59
2019-04-06T02:31:40.936Z,40.03
2019-04-06T02:36:49.549Z,37.58
2019-04-06T02:41:57.961Z,36.63
2019-04-06T02:47:06.846Z,38.55
2019-04-06T02:52:22.935Z,36.32
2019-04-06T02:57:21.378Z,35.10
2019-04-06T03:02:29.749Z,34.57
2019-04-06T03:07:38.642Z,35.13
2019-04-06T03:12:47.531Z,36.80
2019-04-06T03:18:00.401Z,36.79
2019-04-06T03:22:58.730Z,36.18
2019-04-06T03:28:07.404Z,36.65
2019-04-06T03:33:16.923Z,35.24
2019-04-06T03:38:25.931Z,36.42
2019-04-06T03:43:34.639Z,41.47
2019-04-06T03:48:43.015Z,39.55
2019-04-06T03:53:51.977Z,41.91
2019-04-06T03:59:00.299Z,40.90
2019-04-06T04:04:09.181Z,42.20
2019-04-06T04:09:17.600Z,46.57
2019-04-06T04:14:25.125Z,48.50
2019-04-06T04:19:33.530Z,47.64
2019-04-06T04:24:42.288Z,51.98
2019-04-06T04:29:50.774Z,48.38
2019-04-06T04:34:59.573Z,50.07
2019-04-06T04:40:07.906Z,49.05
2019-04-06T04:45:16.719Z,48.91
2019-04-06T04:50:25.209Z,49.19
2019-04-06T04:55:40.144Z,49.98
2019-04-06T05:00:38.702Z,48.03
2019-04-06T05:05:45.047Z,52.01
2019-04-06T05:10:54.930Z,50.90
2019-04-06T05:16:03.949Z,44.59
2019-04-06T05:21:12.934Z,43.56
2019-04-06T05:26:21.160Z,45.04
2019-04-06T05:31:30.891Z,46.29
2019-04-06T05:36:39.937Z,47.12
2019-04-06T05:41:50.492Z,47.63
2019-04-06T05:46:56.796Z,45.34
2019-04-06T05:52:05.677Z,41.92
2019-04-06T05:57:14.169Z,40.13
2019-04-06T06:02:22.912Z,38.39
2019-04-06T06:07:31.356Z,38.68
2019-04-06T06:12:41.275Z,34.08
2019-04-06T06:17:49.646Z,32.20
2019-04-06T06:23:06.403Z,31.55
2019-04-06T06:28:13.830Z,32.22
2019-04-06T06:33:17.390Z,29.93
2019-04-06T06:38:16.372Z,28.03
2019-04-06T06:43:23.396Z,27.26
2019-04-06T06:48:38.718Z,28.15
2019-04-06T06:53:36.909Z,25.64
2019-04-06T06:58:45.673Z,25.20
2019-04-06T07:03:56.029Z,26.84
2019-04-06T07:08:55.037Z,27.88
2019-04-06T07:14:04.708Z,27.29
2019-04-06T07:19:12.246Z,27.42
2019-04-06T07:24:21.212Z,27.93
2019-04-06T07:29:37.404Z,27.52
2019-04-06T07:34:35.741Z,27.47
2019-04-06T07:39:44.235Z,27.09
2019-04-06T07:44:53.378Z,25.68
2019-04-06T07:50:02.407Z,26.59
2019-04-06T07:55:11.823Z,28.76
2019-04-06T08:00:24.263Z,29.53
2019-04-06T08:05:23.641Z,28.78
2019-04-06T08:10:32.580Z,28.01
2019-04-06T08:15:41.504Z,27.30
2019-04-06T08:20:49.567Z,28.89
2019-04-06T08:25:58.425Z,28.74
2019-04-06T08:31:07.696Z,27.69
2019-04-06T08:36:16.855Z,28.06
2019-04-06T08:41:25.462Z,25.80
2019-04-06T08:46:35.646Z,29.14
2019-04-06T08:51:34.764Z,28.42
2019-04-06T08:56:44.430Z,29.24
2019-04-06T09:01:52.462Z,30.54
2019-04-06T09:07:02.100Z,28.07
2019-04-06T09:12:17.289Z,27.99
2019-04-06T09:17:16.642Z,26.89
2019-04-06T09:22:27.350Z,28.88
2019-04-06T09:27:26.169Z,28.50
2019-04-06T09:32:35.713Z,27.61
2019-04-06T09:37:45.030Z,29.26
2019-04-06T09:42:53.949Z,28.53
2019-04-06T09:48:11.643Z,27.39
2019-04-06T09:53:09.837Z,27.00
2019-04-06T09:58:18.792Z,27.05
2019-04-06T10:03:28.074Z,25.33
2019-04-06T10:08:36.990Z,29.32
2019-04-06T10:13:46.332Z,32.93
2019-04-06T10:18:58.959Z,27.78
2019-04-06T10:23:59.104Z,28.87
2019-04-06T10:28:58.248Z,29.26
2019-04-06T10:34:07.299Z,30.66
2019-04-06T10:39:17.276Z,38.69
2019-04-06T10:44:26.635Z,31.22
2019-04-06T10:49:36.872Z,30.59
2019-04-06T10:54:35.090Z,31.53
2019-04-06T10:59:44.427Z,35.45
2019-04-06T11:04:53.982Z,32.33
2019-04-06T11:10:03.217Z,32.66
2019-04-06T11:15:12.566Z,31.63
2019-04-06T11:20:21.007Z,30.48
2019-04-06T11:25:30.356Z,29.34
2019-04-06T11:30:39.524Z,31.16
2019-04-06T11:35:48.957Z,30.13
2019-04-06T11:40:58.157Z,29.48
2019-04-06T11:46:07.729Z,29.24
2019-04-06T11:51:16.863Z,31.13
2019-04-06T11:56:27.320Z,30.22
2019-04-06T12:01:26.315Z,29.53
2019-04-06T12:06:35.357Z,27.64
2019-04-06T12:11:45.110Z,26.85
2019-04-06T12:16:53.239Z,22.35
2019-04-06T12:22:02.134Z,24.60
2019-04-06T12:27:11.038Z,23.24
2019-04-06T12:32:20.482Z,25.75
2019-04-06T12:37:29.487Z,24.90
2019-04-06T12:42:38.680Z,19.14
2019-04-06T12:47:47.450Z,16.53
2019-04-06T12:52:55.317Z,18.27
2019-04-06T12:58:04.499Z,18.10
2019-04-06T13:03:12.185Z,16.67
2019-04-06T13:13:28.643Z,16.57
2019-04-06T13:18:37.720Z,18.30
2019-04-06T13:23:47.418Z,18.96
2019-04-06T13:28:56.066Z,15.27
2019-04-06T13:34:08.604Z,17.35
2019-04-06T13:39:07.494Z,16.30
2019-04-06T13:44:16.489Z,16.14
2019-04-06T13:49:27.913Z,14.20
2019-04-06T13:54:26.822Z,17.44
2019-04-06T13:59:35.829Z,14.40
2019-04-06T14:04:45.462Z,14.50
2019-04-06T14:09:54.530Z,13.39
2019-04-06T14:15:05.519Z,13.61
2019-04-06T14:20:04.057Z,14.06
2019-04-06T14:25:14.815Z,14.29
2019-04-06T14:30:13.753Z,14.34
2019-04-06T14:35:22.662Z,15.82
2019-04-06T14:40:34.565Z,19.96
2019-04-06T14:45:45.430Z,18.24
2019-04-06T14:50:33.076Z,20.90
2019-04-06T14:55:42.670Z,20.90
2019-04-06T15:00:50.842Z,18.52
2019-04-06T15:06:00.547Z,19.91
2019-04-06T15:11:09.628Z,16.53
2019-04-06T15:16:19.128Z,15.87
2019-04-06T15:21:28.014Z,18.25
2019-04-06T15:26:39.511Z,16.76
2019-04-06T15:31:48.106Z,16.18
2019-04-06T15:36:47.461Z,18.01
2019-04-06T15:41:57.482Z,17.83
2019-04-06T15:47:11.712Z,17.82
2019-04-06T15:52:14.391Z,16.74
2019-04-06T15:57:19.777Z,17.15
2019-04-06T16:02:29.495Z,17.40
2019-04-06T16:07:38.221Z,19.33
2019-04-06T16:12:47.582Z,17.82
2019-04-06T16:17:57.181Z,17.97
2019-04-06T16:23:06.439Z,17.50
2019-04-06T16:28:15.454Z,17.22
2019-04-06T16:33:24.130Z,16.99
2019-04-06T16:38:33.146Z,17.16
2019-04-06T16:43:43.680Z,16.40
2019-04-06T16:48:42.332Z,15.87
2019-04-06T16:53:51.401Z,14.69
2019-04-06T16:59:01.129Z,13.60
2019-04-06T17:04:10.222Z,14.83
2019-04-06T17:09:20.719Z,14.27
2019-04-06T17:14:19.255Z,13.80
2019-04-06T17:19:28.306Z,14.37
2019-04-06T17:24:37.736Z,14.58
2019-04-06T17:29:47.120Z,15.27
2019-04-06T17:34:57.126Z,16.47
2019-04-06T17:40:04.844Z,17.43
2019-04-06T17:45:14.317Z,16.73
2019-04-06T17:50:23.075Z,16.28
2019-04-06T18:00:39.821Z,17.10
2019-04-06T18:05:49.597Z,17.68
2019-04-06T18:10:59.283Z,20.32
2019-04-06T18:16:08.954Z,17.91
2019-04-06T18:21:21.708Z,17.95
2019-04-06T18:26:19.504Z,17.03
2019-04-06T18:31:29.112Z,17.42
2019-04-06T18:36:37.826Z,16.31
2019-04-06T18:41:46.548Z,14.81
2019-04-06T18:47:03.864Z,13.62
2019-04-06T18:52:02.947Z,12.65
2019-04-06T18:57:11.719Z,12.53
2019-04-06T19:02:22.573Z,12.50
2019-04-06T19:07:22.694Z,11.88
2019-04-06T19:12:21.733Z,13.57
2019-04-06T19:17:30.725Z,13.85
2019-04-06T19:22:40.970Z,14.34
2019-04-06T19:27:49.012Z,14.99
2019-04-06T19:32:58.859Z,13.95
2019-04-06T19:38:06.798Z,15.18
2019-04-06T19:43:17.963Z,15.78
2019-04-06T19:48:24.835Z,15.63
2019-04-06T19:53:34.559Z,19.88
2019-04-06T19:58:42.678Z,18.46
2019-04-06T20:03:52.674Z,19.39
2019-04-06T20:09:00.532Z,21.09
2019-04-06T20:14:09.850Z,20.28
2019-04-06T20:24:26.294Z,21.29
2019-04-06T20:29:35.651Z,22.38
2019-04-06T20:34:44.185Z,21.50
2019-04-06T20:39:54.644Z,22.19
2019-04-06T20:44:53.847Z,21.13
2019-04-06T20:50:03.663Z,21.74
2019-04-06T20:55:12.979Z,22.07
2019-04-06T21:00:12.058Z,21.32
2019-04-06T21:05:21.159Z,21.09
2019-04-06T21:10:30.517Z,20.96
2019-04-06T21:15:43.050Z,21.13
2019-04-06T21:20:41.673Z,22.53
2019-04-06T21:25:50.869Z,22.16
2019-04-06T21:30:59.952Z,22.47
2019-04-06T21:36:09.532Z,22.15
2019-04-06T21:41:22.999Z,21.95
2019-04-06T21:46:21.365Z,23.23
2019-04-06T21:51:29.641Z,21.56
2019-04-06T21:56:38.931Z,22.58
2019-04-06T22:01:47.793Z,23.07
2019-04-06T22:06:57.316Z,24.16
2019-04-06T22:12:06.197Z,24.30
2019-04-06T22:17:15.927Z,24.52
2019-04-06T22:22:23.068Z,24.53
2019-04-06T22:27:33.460Z,23.43
2019-04-06T22:32:32.328Z,23.62
2019-04-06T22:37:41.860Z,24.40
2019-04-06T22:42:50.372Z,26.63
2019-04-06T22:53:06.588Z,24.99
2019-04-06T22:58:15.706Z,26.08
2019-04-06T23:03:25.303Z,25.83
2019-04-06T23:08:32.645Z,24.63
2019-04-06T23:13:42.112Z,24.12
2019-04-06T23:18:50.573Z,25.78
2019-04-06T23:24:02.655Z,25.28
2019-04-06T23:29:08.802Z,24.31
2019-04-06T23:34:18.005Z,24.60
2019-04-06T23:39:26.288Z,25.39
2019-04-06T23:44:34.800Z,25.43
2019-04-06T23:49:48.136Z,25.44
2019-04-06T23:54:47.432Z,25.30
2019-04-06T23:59:56.247Z,25.15
